Terminal Aerodrome Forecast
Issued by NWS

Home | Current Version | Previous Version | Text Only | Print | Product List | Glossary On
Versions: 1 2 3 4 5 6 7 8 9 10 11 12 13
064
FTUS43 KDLH 252336
TAFHYR
TAF
KHYR 252336Z 2600/2624 VRB04KT P6SM SCT250
     FM260500 VRB03KT P6SM BKN250
     FM261300 24006KT P6SM BKN200
     FM261600 28006KT P6SM BKN050
     FM261800 33009KT P6SM VCSH BKN035=

USA.gov is the U.S. government's official web portal to all federal, state and local government web resources and services.